Valley, United Kingdom
Current Conditions -  °F | °C
As of 4:50 PM on Saturday 25 Oct 2014 (Local Time) from EGOV Reporting Station
Broken Clouds Broken Clouds  
Wind Chill: 57°   Ceiling: 4200
Heat Index: 57°   Visibility: 6mi
Dew Point: 48°   Wind: 24mph
Humidity: 72%   Direction: 220°SW
Pressure: 29.91"   Gusts: NA
Location:  53.25°N, 4.53°W
Report Text: EGOV 251550Z AUTO 22021KT 9999 FEW036/// BKN042/// 14/09 Q1013 RERA
Loading
Personal Weather Stations






























Interactive Weather Map
Tropical Storm Tracking
New forecast layout! Learn more

10-Day Weather Forecast

Advertisements
Track Severe Weather on mobile